sensor_id;sensor_type;location;lat;lon;timestamp;temperature;humidity
19892;DHT22;10108;50.142;8.724;2023-05-07T00:02:01;15.80;99.90
19892;DHT22;10108;50.142;8.724;2023-05-07T00:04:29;15.80;99.90
19892;DHT22;10108;50.142;8.724;2023-05-07T00:07:02;15.80;99.90
19892;DHT22;10108;50.142;8.724;2023-05-07T00:09:28;15.80;99.90
19892;DHT22;10108;50.142;8.724;2023-05-07T00:11:54;15.80;99.90
19892;DHT22;10108;50.142;8.724;2023-05-07T00:14:20;15.80;99.90
19892;DHT22;10108;50.142;8.724;2023-05-07T00:16:46;15.80;99.90
19892;DHT22;10108;50.142;8.724;2023-05-07T00:19:13;15.80;99.90
19892;DHT22;10108;50.142;8.724;2023-05-07T00:21:39;15.80;99.90
19892;DHT22;10108;50.142;8.724;2023-05-07T00:24:05;15.80;99.90
19892;DHT22;10108;50.142;8.724;2023-05-07T00:26:31;15.80;99.90
19892;DHT22;10108;50.142;8.724;2023-05-07T00:28:57;15.70;99.90
19892;DHT22;10108;50.142;8.724;2023-05-07T00:31:23;15.80;99.90
19892;DHT22;10108;50.142;8.724;2023-05-07T00:33:49;15.70;99.90
19892;DHT22;10108;50.142;8.724;2023-05-07T00:36:15;15.80;99.90
19892;DHT22;10108;50.142;8.724;2023-05-07T00:38:41;15.80;99.90
19892;DHT22;10108;50.142;8.724;2023-05-07T00:41:08;15.80;99.90
19892;DHT22;10108;50.142;8.724;2023-05-07T00:43:34;15.80;99.90
19892;DHT22;10108;50.142;8.724;2023-05-07T00:46:00;15.80;99.90
19892;DHT22;10108;50.142;8.724;2023-05-07T00:48:27;15.80;99.90
19892;DHT22;10108;50.142;8.724;2023-05-07T00:50:53;15.70;99.90
19892;DHT22;10108;50.142;8.724;2023-05-07T00:53:20;15.70;99.90
19892;DHT22;10108;50.142;8.724;2023-05-07T00:55:46;15.70;99.90
19892;DHT22;10108;50.142;8.724;2023-05-07T00:58:13;15.70;99.90
19892;DHT22;10108;50.142;8.724;2023-05-07T01:00:39;15.60;99.90
19892;DHT22;10108;50.142;8.724;2023-05-07T01:03:05;15.60;99.90
19892;DHT22;10108;50.142;8.724;2023-05-07T01:05:32;15.50;99.90
19892;DHT22;10108;50.142;8.724;2023-05-07T01:07:59;15.40;99.90
19892;DHT22;10108;50.142;8.724;2023-05-07T01:10:26;15.40;99.90
19892;DHT22;10108;50.142;8.724;2023-05-07T01:12:54;15.30;99.90
19892;DHT22;10108;50.142;8.724;2023-05-07T01:15:20;15.30;99.90
19892;DHT22;10108;50.142;8.724;2023-05-07T01:17:46;15.30;99.90
19892;DHT22;10108;50.142;8.724;2023-05-07T01:20:19;15.30;99.90
19892;DHT22;10108;50.142;8.724;2023-05-07T01:22:46;15.30;99.90
19892;DHT22;10108;50.142;8.724;2023-05-07T01:25:12;15.30;99.90
19892;DHT22;10108;50.142;8.724;2023-05-07T01:27:44;15.30;99.90
19892;DHT22;10108;50.142;8.724;2023-05-07T01:30:10;15.40;99.90
19892;DHT22;10108;50.142;8.724;2023-05-07T01:32:51;15.40;99.90
19892;DHT22;10108;50.142;8.724;2023-05-07T01:35:27;15.40;99.90
19892;DHT22;10108;50.142;8.724;2023-05-07T01:37:54;15.40;99.90
19892;DHT22;10108;50.142;8.724;2023-05-07T01:40:21;15.40;99.90
19892;DHT22;10108;50.142;8.724;2023-05-07T01:42:47;15.50;99.90
19892;DHT22;10108;50.142;8.724;2023-05-07T01:45:14;15.50;99.90
19892;DHT22;10108;50.142;8.724;2023-05-07T01:47:40;15.50;99.90
19892;DHT22;10108;50.142;8.724;2023-05-07T01:50:07;15.50;99.90
19892;DHT22;10108;50.142;8.724;2023-05-07T01:52:38;15.50;99.90
19892;DHT22;10108;50.142;8.724;2023-05-07T01:55:05;15.50;99.90
19892;DHT22;10108;50.142;8.724;2023-05-07T01:57:32;15.50;99.90
19892;DHT22;10108;50.142;8.724;2023-05-07T01:59:58;15.50;99.90
19892;DHT22;10108;50.142;8.724;2023-05-07T02:02:24;15.50;99.90
19892;DHT22;10108;50.142;8.724;2023-05-07T02:04:52;15.50;99.90
19892;DHT22;10108;50.142;8.724;2023-05-07T02:07:19;15.50;99.90
19892;DHT22;10108;50.142;8.724;2023-05-07T02:09:45;15.50;99.90
19892;DHT22;10108;50.142;8.724;2023-05-07T02:12:11;15.50;99.90
19892;DHT22;10108;50.142;8.724;2023-05-07T02:14:37;15.50;99.90
19892;DHT22;10108;50.142;8.724;2023-05-07T02:17:03;15.50;99.90
19892;DHT22;10108;50.142;8.724;2023-05-07T02:19:30;15.50;99.90
19892;DHT22;10108;50.142;8.724;2023-05-07T02:21:56;15.50;99.90
19892;DHT22;10108;50.142;8.724;2023-05-07T02:24:22;15.50;99.90
19892;DHT22;10108;50.142;8.724;2023-05-07T02:26:48;15.40;99.90
19892;DHT22;10108;50.142;8.724;2023-05-07T02:29:14;15.40;99.90
19892;DHT22;10108;50.142;8.724;2023-05-07T02:31:41;15.40;99.90
19892;DHT22;10108;50.142;8.724;2023-05-07T02:34:07;15.40;99.90
19892;DHT22;10108;50.142;8.724;2023-05-07T02:36:33;15.40;99.90
19892;DHT22;10108;50.142;8.724;2023-05-07T02:39:05;15.40;99.90
19892;DHT22;10108;50.142;8.724;2023-05-07T02:41:32;15.40;99.90
19892;DHT22;10108;50.142;8.724;2023-05-07T02:43:58;15.40;99.90
19892;DHT22;10108;50.142;8.724;2023-05-07T02:46:25;15.40;99.90
19892;DHT22;10108;50.142;8.724;2023-05-07T02:48:59;15.40;99.90
19892;DHT22;10108;50.142;8.724;2023-05-07T02:51:26;15.40;99.90
19892;DHT22;10108;50.142;8.724;2023-05-07T02:53:54;15.40;99.90
19892;DHT22;10108;50.142;8.724;2023-05-07T02:56:21;15.30;99.90
19892;DHT22;10108;50.142;8.724;2023-05-07T02:58:48;15.40;99.90
19892;DHT22;10108;50.142;8.724;2023-05-07T03:01:15;15.30;99.90
19892;DHT22;10108;50.142;8.724;2023-05-07T03:03:51;15.40;99.90
19892;DHT22;10108;50.142;8.724;2023-05-07T03:06:17;15.40;99.90
19892;DHT22;10108;50.142;8.724;2023-05-07T03:08:43;15.40;99.90
19892;DHT22;10108;50.142;8.724;2023-05-07T03:11:09;15.40;99.90
19892;DHT22;10108;50.142;8.724;2023-05-07T03:13:35;15.30;99.90
19892;DHT22;10108;50.142;8.724;2023-05-07T03:16:02;15.30;99.90
19892;DHT22;10108;50.142;8.724;2023-05-07T03:18:28;15.30;99.90
19892;DHT22;10108;50.142;8.724;2023-05-07T03:20:54;15.40;99.90
19892;DHT22;10108;50.142;8.724;2023-05-07T03:23:20;15.30;99.90
19892;DHT22;10108;50.142;8.724;2023-05-07T03:25:46;15.30;99.90
19892;DHT22;10108;50.142;8.724;2023-05-07T03:28:12;15.30;99.90
19892;DHT22;10108;50.142;8.724;2023-05-07T03:30:47;15.30;99.90
19892;DHT22;10108;50.142;8.724;2023-05-07T03:33:13;15.30;99.90
19892;DHT22;10108;50.142;8.724;2023-05-07T03:35:39;15.30;99.90
19892;DHT22;10108;50.142;8.724;2023-05-07T03:38:05;15.30;99.90
19892;DHT22;10108;50.142;8.724;2023-05-07T03:40:34;15.30;99.90
19892;DHT22;10108;50.142;8.724;2023-05-07T03:43:02;15.30;99.90
19892;DHT22;10108;50.142;8.724;2023-05-07T03:45:30;15.30;99.90
19892;DHT22;10108;50.142;8.724;2023-05-07T03:48:08;15.30;99.90
19892;DHT22;10108;50.142;8.724;2023-05-07T03:50:34;15.30;99.90
19892;DHT22;10108;50.142;8.724;2023-05-07T03:53:01;15.30;99.90
19892;DHT22;10108;50.142;8.724;2023-05-07T03:55:28;15.30;99.90
19892;DHT22;10108;50.142;8.724;2023-05-07T03:57:58;15.30;99.90
19892;DHT22;10108;50.142;8.724;2023-05-07T04:00:26;15.20;99.90
19892;DHT22;10108;50.142;8.724;2023-05-07T04:02:52;15.30;99.90
19892;DHT22;10108;50.142;8.724;2023-05-07T04:05:25;15.20;99.90
19892;DHT22;10108;50.142;8.724;2023-05-07T04:07:58;15.20;99.90
19892;DHT22;10108;50.142;8.724;2023-05-07T04:10:29;15.30;99.90
19892;DHT22;10108;50.142;8.724;2023-05-07T04:12:57;15.20;99.90
19892;DHT22;10108;50.142;8.724;2023-05-07T04:15:25;15.20;99.90
19892;DHT22;10108;50.142;8.724;2023-05-07T04:17:51;15.20;99.90
19892;DHT22;10108;50.142;8.724;2023-05-07T04:20:20;15.20;99.90
19892;DHT22;10108;50.142;8.724;2023-05-07T04:22:50;15.20;99.90
19892;DHT22;10108;50.142;8.724;2023-05-07T04:25:17;15.20;99.90
19892;DHT22;10108;50.142;8.724;2023-05-07T04:27:43;15.10;99.90
19892;DHT22;10108;50.142;8.724;2023-05-07T04:30:10;15.20;99.90
19892;DHT22;10108;50.142;8.724;2023-05-07T04:32:38;15.20;99.90
19892;DHT22;10108;50.142;8.724;2023-05-07T04:35:05;15.20;99.90
19892;DHT22;10108;50.142;8.724;2023-05-07T04:37:32;15.20;99.90
19892;DHT22;10108;50.142;8.724;2023-05-07T04:39:59;15.20;99.90
19892;DHT22;10108;50.142;8.724;2023-05-07T04:42:26;15.20;99.90
19892;DHT22;10108;50.142;8.724;2023-05-07T04:44:53;15.20;99.90
19892;DHT22;10108;50.142;8.724;2023-05-07T04:47:20;15.20;99.90
19892;DHT22;10108;50.142;8.724;2023-05-07T04:49:47;15.20;99.90
19892;DHT22;10108;50.142;8.724;2023-05-07T04:52:13;15.20;99.90
19892;DHT22;10108;50.142;8.724;2023-05-07T04:54:39;15.30;99.90
19892;DHT22;10108;50.142;8.724;2023-05-07T04:57:07;15.30;99.90
19892;DHT22;10108;50.142;8.724;2023-05-07T04:59:33;15.30;99.90
19892;DHT22;10108;50.142;8.724;2023-05-07T05:01:59;15.30;99.90
19892;DHT22;10108;50.142;8.724;2023-05-07T05:04:26;15.30;99.90
19892;DHT22;10108;50.142;8.724;2023-05-07T05:06:52;15.30;99.90
19892;DHT22;10108;50.142;8.724;2023-05-07T05:09:18;15.30;99.90
19892;DHT22;10108;50.142;8.724;2023-05-07T05:11:45;15.30;99.90
19892;DHT22;10108;50.142;8.724;2023-05-07T05:14:11;15.30;99.90
19892;DHT22;10108;50.142;8.724;2023-05-07T05:16:37;15.40;99.90
19892;DHT22;10108;50.142;8.724;2023-05-07T05:19:04;15.40;99.90
19892;DHT22;10108;50.142;8.724;2023-05-07T05:21:32;15.40;99.90
19892;DHT22;10108;50.142;8.724;2023-05-07T05:24:05;15.40;99.90
19892;DHT22;10108;50.142;8.724;2023-05-07T05:26:31;15.40;99.90
19892;DHT22;10108;50.142;8.724;2023-05-07T05:28:57;15.40;99.90
19892;DHT22;10108;50.142;8.724;2023-05-07T05:31:26;15.50;99.90
19892;DHT22;10108;50.142;8.724;2023-05-07T05:33:52;15.50;99.90
19892;DHT22;10108;50.142;8.724;2023-05-07T05:36:18;15.50;99.90
19892;DHT22;10108;50.142;8.724;2023-05-07T05:38:46;15.50;99.90
19892;DHT22;10108;50.142;8.724;2023-05-07T05:41:13;15.50;99.90
19892;DHT22;10108;50.142;8.724;2023-05-07T05:43:39;15.50;99.90
19892;DHT22;10108;50.142;8.724;2023-05-07T05:46:06;15.60;99.90
19892;DHT22;10108;50.142;8.724;2023-05-07T05:48:34;15.60;99.90
19892;DHT22;10108;50.142;8.724;2023-05-07T05:51:01;15.60;99.90
19892;DHT22;10108;50.142;8.724;2023-05-07T05:53:28;15.60;99.90
19892;DHT22;10108;50.142;8.724;2023-05-07T05:55:54;15.60;99.90
19892;DHT22;10108;50.142;8.724;2023-05-07T05:58:21;15.60;99.90
19892;DHT22;10108;50.142;8.724;2023-05-07T06:00:52;15.70;99.90
19892;DHT22;10108;50.142;8.724;2023-05-07T06:03:20;15.70;99.90
19892;DHT22;10108;50.142;8.724;2023-05-07T06:05:47;15.70;99.90
19892;DHT22;10108;50.142;8.724;2023-05-07T06:08:14;15.70;99.90
19892;DHT22;10108;50.142;8.724;2023-05-07T06:10:40;15.80;99.90
19892;DHT22;10108;50.142;8.724;2023-05-07T06:13:08;15.80;99.90
19892;DHT22;10108;50.142;8.724;2023-05-07T06:15:36;15.80;99.90
19892;DHT22;10108;50.142;8.724;2023-05-07T06:18:07;15.80;99.90
19892;DHT22;10108;50.142;8.724;2023-05-07T06:20:34;15.90;99.90
19892;DHT22;10108;50.142;8.724;2023-05-07T06:23:02;15.90;99.90
19892;DHT22;10108;50.142;8.724;2023-05-07T06:25:30;15.90;99.90
19892;DHT22;10108;50.142;8.724;2023-05-07T06:27:56;15.90;99.90
19892;DHT22;10108;50.142;8.724;2023-05-07T06:30:24;16.00;99.90
19892;DHT22;10108;50.142;8.724;2023-05-07T06:32:50;16.00;99.90
19892;DHT22;10108;50.142;8.724;2023-05-07T06:35:16;16.00;99.90
19892;DHT22;10108;50.142;8.724;2023-05-07T06:37:42;16.00;99.90
19892;DHT22;10108;50.142;8.724;2023-05-07T06:40:14;16.00;99.90
19892;DHT22;10108;50.142;8.724;2023-05-07T06:42:41;16.00;99.90
19892;DHT22;10108;50.142;8.724;2023-05-07T06:45:28;16.00;99.90
19892;DHT22;10108;50.142;8.724;2023-05-07T06:47:58;16.00;99.90
19892;DHT22;10108;50.142;8.724;2023-05-07T06:50:27;16.00;99.90
19892;DHT22;10108;50.142;8.724;2023-05-07T06:52:56;16.00;99.90
19892;DHT22;10108;50.142;8.724;2023-05-07T06:55:22;16.00;99.90
19892;DHT22;10108;50.142;8.724;2023-05-07T06:57:49;16.00;99.90
19892;DHT22;10108;50.142;8.724;2023-05-07T07:00:15;16.00;99.90
19892;DHT22;10108;50.142;8.724;2023-05-07T07:02:52;16.00;99.90
19892;DHT22;10108;50.142;8.724;2023-05-07T07:05:21;16.00;99.90
19892;DHT22;10108;50.142;8.724;2023-05-07T07:07:48;16.00;99.90
19892;DHT22;10108;50.142;8.724;2023-05-07T07:10:19;16.00;99.90
19892;DHT22;10108;50.142;8.724;2023-05-07T07:12:46;16.00;99.90
19892;DHT22;10108;50.142;8.724;2023-05-07T07:15:13;16.00;99.90
19892;DHT22;10108;50.142;8.724;2023-05-07T07:17:39;16.00;99.90
19892;DHT22;10108;50.142;8.724;2023-05-07T07:20:06;16.00;99.90
19892;DHT22;10108;50.142;8.724;2023-05-07T07:22:33;16.10;99.90
19892;DHT22;10108;50.142;8.724;2023-05-07T07:25:00;16.10;99.90
19892;DHT22;10108;50.142;8.724;2023-05-07T07:27:26;16.20;99.90
19892;DHT22;10108;50.142;8.724;2023-05-07T07:29:52;16.30;99.90
19892;DHT22;10108;50.142;8.724;2023-05-07T07:32:19;16.30;99.90
19892;DHT22;10108;50.142;8.724;2023-05-07T07:34:45;16.40;99.90
19892;DHT22;10108;50.142;8.724;2023-05-07T07:37:12;16.50;99.90
19892;DHT22;10108;50.142;8.724;2023-05-07T07:39:38;16.50;99.90
19892;DHT22;10108;50.142;8.724;2023-05-07T07:42:06;16.60;99.90
19892;DHT22;10108;50.142;8.724;2023-05-07T07:44:33;16.70;99.90
19892;DHT22;10108;50.142;8.724;2023-05-07T07:47:04;16.70;99.90
19892;DHT22;10108;50.142;8.724;2023-05-07T07:49:31;16.80;99.90
19892;DHT22;10108;50.142;8.724;2023-05-07T07:52:02;16.80;99.90
19892;DHT22;10108;50.142;8.724;2023-05-07T07:54:29;16.90;99.90
19892;DHT22;10108;50.142;8.724;2023-05-07T07:56:56;16.90;99.90
19892;DHT22;10108;50.142;8.724;2023-05-07T07:59:22;17.00;99.90
19892;DHT22;10108;50.142;8.724;2023-05-07T08:01:49;17.00;99.90
19892;DHT22;10108;50.142;8.724;2023-05-07T08:04:17;17.10;99.90
19892;DHT22;10108;50.142;8.724;2023-05-07T08:06:44;17.10;99.90
19892;DHT22;10108;50.142;8.724;2023-05-07T08:09:11;17.10;99.90
19892;DHT22;10108;50.142;8.724;2023-05-07T08:11:39;17.20;99.90
19892;DHT22;10108;50.142;8.724;2023-05-07T08:14:06;17.20;99.90
19892;DHT22;10108;50.142;8.724;2023-05-07T08:16:32;17.20;99.90
19892;DHT22;10108;50.142;8.724;2023-05-07T08:19:00;17.30;99.90
19892;DHT22;10108;50.142;8.724;2023-05-07T08:21:26;17.30;99.90
19892;DHT22;10108;50.142;8.724;2023-05-07T08:23:53;17.40;99.90
19892;DHT22;10108;50.142;8.724;2023-05-07T08:26:19;17.40;99.90
19892;DHT22;10108;50.142;8.724;2023-05-07T08:28:46;17.40;99.90
19892;DHT22;10108;50.142;8.724;2023-05-07T08:31:12;17.50;99.90
19892;DHT22;10108;50.142;8.724;2023-05-07T08:33:41;17.50;99.90
19892;DHT22;10108;50.142;8.724;2023-05-07T08:36:07;17.50;99.90
19892;DHT22;10108;50.142;8.724;2023-05-07T08:38:33;17.60;99.90
19892;DHT22;10108;50.142;8.724;2023-05-07T08:41:00;17.60;99.90
19892;DHT22;10108;50.142;8.724;2023-05-07T08:43:28;17.60;99.90
19892;DHT22;10108;50.142;8.724;2023-05-07T08:46:01;17.60;99.90
19892;DHT22;10108;50.142;8.724;2023-05-07T08:48:31;17.70;99.90
19892;DHT22;10108;50.142;8.724;2023-05-07T08:51:05;17.60;99.90
19892;DHT22;10108;50.142;8.724;2023-05-07T08:53:33;17.70;99.90
19892;DHT22;10108;50.142;8.724;2023-05-07T08:55:59;17.70;99.90
19892;DHT22;10108;50.142;8.724;2023-05-07T08:58:29;17.70;99.90
19892;DHT22;10108;50.142;8.724;2023-05-07T09:01:17;17.70;99.90
19892;DHT22;10108;50.142;8.724;2023-05-07T09:03:47;17.70;99.90
19892;DHT22;10108;50.142;8.724;2023-05-07T09:06:15;17.80;99.90
19892;DHT22;10108;50.142;8.724;2023-05-07T09:08:48;17.80;99.90
19892;DHT22;10108;50.142;8.724;2023-05-07T09:11:22;17.80;99.90
19892;DHT22;10108;50.142;8.724;2023-05-07T09:13:54;17.80;99.90
19892;DHT22;10108;50.142;8.724;2023-05-07T09:16:22;17.80;99.90
19892;DHT22;10108;50.142;8.724;2023-05-07T09:18:51;17.80;99.90
19892;DHT22;10108;50.142;8.724;2023-05-07T09:21:19;17.90;99.90
19892;DHT22;10108;50.142;8.724;2023-05-07T09:23:50;17.90;99.90
19892;DHT22;10108;50.142;8.724;2023-05-07T09:26:17;17.90;99.90
19892;DHT22;10108;50.142;8.724;2023-05-07T09:28:44;17.90;99.90
19892;DHT22;10108;50.142;8.724;2023-05-07T09:31:13;17.90;99.90
19892;DHT22;10108;50.142;8.724;2023-05-07T09:33:40;17.90;99.90
19892;DHT22;10108;50.142;8.724;2023-05-07T09:36:09;18.00;99.90
19892;DHT22;10108;50.142;8.724;2023-05-07T09:38:38;18.00;99.90
19892;DHT22;10108;50.142;8.724;2023-05-07T09:41:06;18.00;99.90
19892;DHT22;10108;50.142;8.724;2023-05-07T09:43:38;18.10;99.90
19892;DHT22;10108;50.142;8.724;2023-05-07T09:46:14;18.10;99.90
19892;DHT22;10108;50.142;8.724;2023-05-07T09:48:48;18.10;99.90
19892;DHT22;10108;50.142;8.724;2023-05-07T09:51:24;18.20;99.90
19892;DHT22;10108;50.142;8.724;2023-05-07T09:53:53;18.20;99.90
19892;DHT22;10108;50.142;8.724;2023-05-07T09:56:21;18.20;99.90
19892;DHT22;10108;50.142;8.724;2023-05-07T09:58:48;18.20;99.90
19892;DHT22;10108;50.142;8.724;2023-05-07T10:01:17;18.20;99.70
19892;DHT22;10108;50.142;8.724;2023-05-07T10:03:45;18.20;99.80
19892;DHT22;10108;50.142;8.724;2023-05-07T10:06:13;18.20;99.90
19892;DHT22;10108;50.142;8.724;2023-05-07T10:08:41;18.20;99.50
19892;DHT22;10108;50.142;8.724;2023-05-07T10:11:09;18.20;99.30
19892;DHT22;10108;50.142;8.724;2023-05-07T10:13:35;18.20;99.30
19892;DHT22;10108;50.142;8.724;2023-05-07T10:16:06;18.10;99.00
19892;DHT22;10108;50.142;8.724;2023-05-07T10:18:40;18.10;98.50
19892;DHT22;10108;50.142;8.724;2023-05-07T10:21:20;18.10;99.00
19892;DHT22;10108;50.142;8.724;2023-05-07T10:23:56;18.00;99.10
19892;DHT22;10108;50.142;8.724;2023-05-07T10:26:25;17.90;99.10
19892;DHT22;10108;50.142;8.724;2023-05-07T10:29:01;17.90;99.00
19892;DHT22;10108;50.142;8.724;2023-05-07T10:31:44;17.90;99.20
19892;DHT22;10108;50.142;8.724;2023-05-07T10:34:18;17.80;98.70
19892;DHT22;10108;50.142;8.724;2023-05-07T10:36:46;17.80;98.90
19892;DHT22;10108;50.142;8.724;2023-05-07T10:39:13;17.90;97.90
19892;DHT22;10108;50.142;8.724;2023-05-07T10:41:40;17.90;97.60
19892;DHT22;10108;50.142;8.724;2023-05-07T10:44:07;17.90;98.10
19892;DHT22;10108;50.142;8.724;2023-05-07T10:46:35;17.90;98.30
19892;DHT22;10108;50.142;8.724;2023-05-07T10:49:10;17.90;98.40
19892;DHT22;10108;50.142;8.724;2023-05-07T10:52:15;17.90;98.50
19892;DHT22;10108;50.142;8.724;2023-05-07T10:57:49;17.90;97.50
19892;DHT22;10108;50.142;8.724;2023-05-07T11:05:30;18.10;94.10
19892;DHT22;10108;50.142;8.724;2023-05-07T11:08:23;18.20;94.00
19892;DHT22;10108;50.142;8.724;2023-05-07T11:10:56;18.20;93.20
19892;DHT22;10108;50.142;8.724;2023-05-07T11:13:49;18.20;99.90
19892;DHT22;10108;50.142;8.724;2023-05-07T11:16:29;18.20;99.90
19892;DHT22;10108;50.142;8.724;2023-05-07T11:19:07;18.20;99.90
19892;DHT22;10108;50.142;8.724;2023-05-07T11:21:42;18.20;99.90
19892;DHT22;10108;50.142;8.724;2023-05-07T11:24:39;18.20;99.90
19892;DHT22;10108;50.142;8.724;2023-05-07T11:27:06;18.20;99.90
19892;DHT22;10108;50.142;8.724;2023-05-07T11:29:32;18.20;99.90
19892;DHT22;10108;50.142;8.724;2023-05-07T11:32:09;18.30;99.90
19892;DHT22;10108;50.142;8.724;2023-05-07T11:34:52;18.40;99.90
19892;DHT22;10108;50.142;8.724;2023-05-07T11:37:19;18.40;99.90
19892;DHT22;10108;50.142;8.724;2023-05-07T11:39:51;18.40;99.90
19892;DHT22;10108;50.142;8.724;2023-05-07T11:42:32;18.50;99.90
19892;DHT22;10108;50.142;8.724;2023-05-07T11:44:58;18.50;99.90
19892;DHT22;10108;50.142;8.724;2023-05-07T11:47:25;18.60;99.90
19892;DHT22;10108;50.142;8.724;2023-05-07T11:49:53;18.60;99.90
19892;DHT22;10108;50.142;8.724;2023-05-07T11:52:21;18.60;99.90
19892;DHT22;10108;50.142;8.724;2023-05-07T11:54:54;18.70;99.90
19892;DHT22;10108;50.142;8.724;2023-05-07T11:57:25;18.70;99.90
19892;DHT22;10108;50.142;8.724;2023-05-07T11:59:58;18.70;99.90
19892;DHT22;10108;50.142;8.724;2023-05-07T12:02:25;18.60;99.90
19892;DHT22;10108;50.142;8.724;2023-05-07T12:04:52;18.60;99.90
19892;DHT22;10108;50.142;8.724;2023-05-07T12:07:18;18.70;99.90
19892;DHT22;10108;50.142;8.724;2023-05-07T12:09:45;18.70;99.90
19892;DHT22;10108;50.142;8.724;2023-05-07T12:12:13;18.70;99.90
19892;DHT22;10108;50.142;8.724;2023-05-07T12:14:45;18.80;99.90
19892;DHT22;10108;50.142;8.724;2023-05-07T12:17:13;18.90;99.90
19892;DHT22;10108;50.142;8.724;2023-05-07T12:19:41;18.90;99.90
19892;DHT22;10108;50.142;8.724;2023-05-07T12:22:08;18.90;99.90
19892;DHT22;10108;50.142;8.724;2023-05-07T12:24:48;19.00;99.90
19892;DHT22;10108;50.142;8.724;2023-05-07T12:27:15;19.00;99.90
19892;DHT22;10108;50.142;8.724;2023-05-07T12:29:48;19.00;99.90
19892;DHT22;10108;50.142;8.724;2023-05-07T12:32:19;19.10;99.90
19892;DHT22;10108;50.142;8.724;2023-05-07T12:34:49;19.10;99.90
19892;DHT22;10108;50.142;8.724;2023-05-07T12:37:15;19.10;99.90
19892;DHT22;10108;50.142;8.724;2023-05-07T12:39:48;19.20;99.90
19892;DHT22;10108;50.142;8.724;2023-05-07T12:42:16;19.20;99.90
19892;DHT22;10108;50.142;8.724;2023-05-07T12:44:45;19.20;99.90
19892;DHT22;10108;50.142;8.724;2023-05-07T12:47:12;19.20;99.90
19892;DHT22;10108;50.142;8.724;2023-05-07T12:49:38;19.20;99.90
19892;DHT22;10108;50.142;8.724;2023-05-07T12:52:06;19.20;99.90
19892;DHT22;10108;50.142;8.724;2023-05-07T12:54:33;19.20;99.90
19892;DHT22;10108;50.142;8.724;2023-05-07T12:57:02;19.20;99.90
19892;DHT22;10108;50.142;8.724;2023-05-07T12:59:37;19.10;99.90
19892;DHT22;10108;50.142;8.724;2023-05-07T13:02:04;19.10;99.90
19892;DHT22;10108;50.142;8.724;2023-05-07T13:04:30;19.00;99.90
19892;DHT22;10108;50.142;8.724;2023-05-07T13:06:56;19.00;99.90
19892;DHT22;10108;50.142;8.724;2023-05-07T13:09:22;19.00;99.90
19892;DHT22;10108;50.142;8.724;2023-05-07T13:11:48;19.00;99.90
19892;DHT22;10108;50.142;8.724;2023-05-07T13:14:15;19.00;99.90
19892;DHT22;10108;50.142;8.724;2023-05-07T13:16:41;18.90;99.90
19892;DHT22;10108;50.142;8.724;2023-05-07T13:19:07;18.90;99.90
19892;DHT22;10108;50.142;8.724;2023-05-07T13:21:33;18.90;99.90
19892;DHT22;10108;50.142;8.724;2023-05-07T13:23:59;18.90;99.90
19892;DHT22;10108;50.142;8.724;2023-05-07T13:26:26;19.00;99.90
19892;DHT22;10108;50.142;8.724;2023-05-07T13:28:53;19.10;99.90
19892;DHT22;10108;50.142;8.724;2023-05-07T13:31:20;19.10;99.90
19892;DHT22;10108;50.142;8.724;2023-05-07T13:33:47;19.10;99.90
19892;DHT22;10108;50.142;8.724;2023-05-07T13:36:13;19.20;99.90
19892;DHT22;10108;50.142;8.724;2023-05-07T13:38:39;19.20;99.90
19892;DHT22;10108;50.142;8.724;2023-05-07T13:41:05;19.10;99.90
19892;DHT22;10108;50.142;8.724;2023-05-07T13:43:32;19.10;99.90
19892;DHT22;10108;50.142;8.724;2023-05-07T13:46:00;19.00;99.90
19892;DHT22;10108;50.142;8.724;2023-05-07T13:48:26;19.00;99.90
19892;DHT22;10108;50.142;8.724;2023-05-07T13:50:52;19.00;99.90
19892;DHT22;10108;50.142;8.724;2023-05-07T13:53:19;19.10;99.90
19892;DHT22;10108;50.142;8.724;2023-05-07T13:55:46;19.10;99.90
19892;DHT22;10108;50.142;8.724;2023-05-07T13:58:12;19.20;99.90
19892;DHT22;10108;50.142;8.724;2023-05-07T14:00:38;19.30;99.90
19892;DHT22;10108;50.142;8.724;2023-05-07T14:03:05;19.30;99.90
19892;DHT22;10108;50.142;8.724;2023-05-07T14:05:31;19.40;99.90
19892;DHT22;10108;50.142;8.724;2023-05-07T14:07:58;19.40;99.90
19892;DHT22;10108;50.142;8.724;2023-05-07T14:10:24;19.50;99.90
19892;DHT22;10108;50.142;8.724;2023-05-07T14:12:50;19.60;99.90
19892;DHT22;10108;50.142;8.724;2023-05-07T14:15:16;19.60;99.90
19892;DHT22;10108;50.142;8.724;2023-05-07T14:17:43;19.60;99.90
19892;DHT22;10108;50.142;8.724;2023-05-07T14:20:10;19.50;99.90
19892;DHT22;10108;50.142;8.724;2023-05-07T14:22:36;19.60;99.90
19892;DHT22;10108;50.142;8.724;2023-05-07T14:25:03;19.60;99.90
19892;DHT22;10108;50.142;8.724;2023-05-07T14:27:29;19.60;99.90
19892;DHT22;10108;50.142;8.724;2023-05-07T14:29:55;19.60;99.90
19892;DHT22;10108;50.142;8.724;2023-05-07T14:32:21;19.50;99.90
19892;DHT22;10108;50.142;8.724;2023-05-07T14:34:48;19.50;99.90
19892;DHT22;10108;50.142;8.724;2023-05-07T14:37:14;19.40;99.90
19892;DHT22;10108;50.142;8.724;2023-05-07T14:39:40;19.30;99.90
19892;DHT22;10108;50.142;8.724;2023-05-07T14:42:07;19.20;99.90
19892;DHT22;10108;50.142;8.724;2023-05-07T14:44:35;19.20;99.90
19892;DHT22;10108;50.142;8.724;2023-05-07T14:47:01;19.10;99.90
19892;DHT22;10108;50.142;8.724;2023-05-07T14:49:27;19.10;99.90
19892;DHT22;10108;50.142;8.724;2023-05-07T14:51:53;19.10;99.90
19892;DHT22;10108;50.142;8.724;2023-05-07T14:54:20;19.10;99.90
19892;DHT22;10108;50.142;8.724;2023-05-07T14:56:46;19.10;99.90
19892;DHT22;10108;50.142;8.724;2023-05-07T14:59:12;19.00;99.90
19892;DHT22;10108;50.142;8.724;2023-05-07T15:01:38;19.10;99.90
19892;DHT22;10108;50.142;8.724;2023-05-07T15:04:08;19.10;99.90
19892;DHT22;10108;50.142;8.724;2023-05-07T15:06:34;19.10;99.90
19892;DHT22;10108;50.142;8.724;2023-05-07T15:09:00;19.00;99.90
19892;DHT22;10108;50.142;8.724;2023-05-07T15:11:26;19.00;99.90
19892;DHT22;10108;50.142;8.724;2023-05-07T15:13:52;18.90;99.90
19892;DHT22;10108;50.142;8.724;2023-05-07T15:16:19;18.90;99.90
19892;DHT22;10108;50.142;8.724;2023-05-07T15:18:45;18.90;99.90
19892;DHT22;10108;50.142;8.724;2023-05-07T15:21:11;18.80;99.90
19892;DHT22;10108;50.142;8.724;2023-05-07T15:23:39;18.80;99.90
19892;DHT22;10108;50.142;8.724;2023-05-07T15:26:07;18.80;99.90
19892;DHT22;10108;50.142;8.724;2023-05-07T15:28:33;18.70;99.90
19892;DHT22;10108;50.142;8.724;2023-05-07T15:31:00;18.70;99.90
19892;DHT22;10108;50.142;8.724;2023-05-07T15:33:26;18.70;99.90
19892;DHT22;10108;50.142;8.724;2023-05-07T15:35:52;18.60;99.90
19892;DHT22;10108;50.142;8.724;2023-05-07T15:38:18;18.60;99.90
19892;DHT22;10108;50.142;8.724;2023-05-07T15:40:44;18.60;99.90
19892;DHT22;10108;50.142;8.724;2023-05-07T15:43:11;18.60;99.90
19892;DHT22;10108;50.142;8.724;2023-05-07T15:45:41;18.60;99.90